createdAt,value
2016-07-15T00:00:40.512Z,0
2016-07-15T00:01:40.509Z,0
2016-07-15T00:02:40.598Z,0
2016-07-15T00:03:40.586Z,0
2016-07-15T00:04:40.587Z,0
2016-07-15T00:06:39.879Z,0
2016-07-15T00:07:40.595Z,0
2016-07-15T00:08:40.509Z,0
2016-07-15T00:09:40.508Z,0
2016-07-15T00:10:40.503Z,0
2016-07-15T00:11:40.504Z,0
2016-07-15T00:12:40.508Z,0
2016-07-15T00:13:40.504Z,0
2016-07-15T00:14:40.504Z,0
2016-07-15T00:15:40.505Z,0
2016-07-15T00:16:40.504Z,0
2016-07-15T00:17:39.797Z,0
2016-07-15T00:18:40.496Z,0
2016-07-15T00:19:40.501Z,0
2016-07-15T00:20:40.501Z,0
2016-07-15T00:21:40.500Z,0
2016-07-15T00:22:40.500Z,0
2016-07-15T00:23:40.501Z,0
2016-07-15T00:24:40.496Z,0
2016-07-15T00:25:40.497Z,0
2016-07-15T00:26:40.496Z,0
2016-07-15T00:27:40.502Z,0
2016-07-15T00:28:40.497Z,0
2016-07-15T00:29:40.497Z,0
2016-07-15T00:30:39.797Z,0
2016-07-15T00:31:40.497Z,0
2016-07-15T00:32:40.497Z,0
2016-07-15T00:33:40.493Z,0
2016-07-15T00:34:40.493Z,0
2016-07-15T00:35:39.793Z,0
2016-07-15T00:36:40.493Z,0
2016-07-15T00:37:40.493Z,0
2016-07-15T00:38:40.493Z,0
2016-07-15T00:39:40.494Z,0
2016-07-15T00:40:40.489Z,0
2016-07-15T00:41:40.537Z,0
2016-07-15T00:42:40.490Z,0
2016-07-15T00:43:40.489Z,0
2016-07-15T00:44:40.489Z,0
2016-07-15T00:45:40.494Z,0
2016-07-15T00:46:40.489Z,0
2016-07-15T00:47:40.489Z,0
2016-07-15T00:48:40.490Z,0
2016-07-15T00:49:40.485Z,0
2016-07-15T00:50:40.486Z,0
2016-07-15T00:51:40.485Z,0
2016-07-15T00:52:40.485Z,0
2016-07-15T00:53:40.486Z,0
2016-07-15T00:54:40.485Z,0
2016-07-15T00:55:40.486Z,0
2016-07-15T00:56:40.486Z,0
2016-07-15T00:57:40.487Z,0
2016-07-15T00:58:40.482Z,0
2016-07-15T00:59:40.490Z,0
2016-07-15T01:00:40.482Z,0
2016-07-15T01:01:40.482Z,0
2016-07-15T01:02:40.658Z,0
2016-07-15T01:03:40.657Z,0
2016-07-15T01:04:40.658Z,0
2016-07-15T01:05:40.654Z,0
2016-07-15T01:06:40.654Z,0
2016-07-15T01:07:40.654Z,0
2016-07-15T01:08:40.661Z,0
2016-07-15T01:09:40.655Z,0
2016-07-15T01:10:40.654Z,0
2016-07-15T01:11:40.654Z,0
2016-07-15T01:12:40.654Z,0
2016-07-15T01:13:40.647Z,0
2016-07-15T01:14:40.651Z,0
2016-07-15T01:15:40.650Z,0
2016-07-15T01:16:40.651Z,0
2016-07-15T01:17:40.650Z,0
2016-07-15T01:18:40.655Z,0
2016-07-15T01:19:39.926Z,0
2016-07-15T01:20:40.646Z,0
2016-07-15T01:21:40.654Z,0
2016-07-15T01:22:40.642Z,0
2016-07-15T01:23:40.641Z,0
2016-07-15T01:24:40.647Z,0
2016-07-15T01:25:40.642Z,0
2016-07-15T01:26:40.642Z,0
2016-07-15T01:27:40.646Z,0
2016-07-15T01:28:40.643Z,0
2016-07-15T01:29:40.639Z,0
2016-07-15T01:30:40.642Z,0
2016-07-15T01:31:40.642Z,0
2016-07-15T01:32:40.642Z,0
2016-07-15T01:33:40.642Z,0
2016-07-15T01:34:40.643Z,0
2016-07-15T01:35:39.918Z,0
2016-07-15T01:36:40.642Z,0
2016-07-15T01:37:40.639Z,0
2016-07-15T01:38:40.638Z,0
2016-07-15T01:39:40.639Z,0
2016-07-15T01:40:40.638Z,0
2016-07-15T01:41:40.655Z,0
2016-07-15T01:42:40.639Z,0
2016-07-15T01:43:40.638Z,0
2016-07-15T01:44:40.639Z,0
2016-07-15T01:45:40.648Z,0
2016-07-15T01:46:40.634Z,0
2016-07-15T01:47:40.635Z,0
2016-07-15T01:48:40.635Z,0
2016-07-15T01:49:40.634Z,0
2016-07-15T01:50:40.634Z,0
2016-07-15T01:51:40.634Z,0
2016-07-15T01:52:40.635Z,0
2016-07-15T01:53:40.634Z,0
2016-07-15T01:54:40.634Z,0
2016-07-15T01:55:39.911Z,0
2016-07-15T01:56:40.630Z,0
2016-07-15T01:57:40.627Z,0
2016-07-15T01:58:40.631Z,0
2016-07-15T01:59:40.635Z,0
2016-07-15T02:00:40.631Z,0
2016-07-15T02:01:40.638Z,0
2016-07-15T02:02:39.907Z,0
2016-07-15T02:03:40.627Z,0
2016-07-15T02:04:40.623Z,0
2016-07-15T02:05:40.623Z,0
2016-07-15T02:06:39.907Z,0
2016-07-15T02:07:40.635Z,0
2016-07-15T02:08:40.631Z,0
2016-07-15T02:09:40.623Z,0
2016-07-15T02:10:40.627Z,0
2016-07-15T02:11:40.623Z,0
2016-07-15T02:12:40.623Z,0
2016-07-15T02:13:40.619Z,0
2016-07-15T02:14:40.624Z,0
2016-07-15T02:15:40.619Z,0
2016-07-15T02:16:40.623Z,0
2016-07-15T02:17:40.620Z,0
2016-07-15T02:18:40.624Z,0
2016-07-15T02:19:40.620Z,0
2016-07-15T02:20:39.895Z,0
2016-07-15T02:21:40.631Z,0
2016-07-15T02:22:40.620Z,0
2016-07-15T02:23:39.899Z,0
2016-07-15T02:24:40.616Z,0
2016-07-15T02:25:40.614Z,0
2016-07-15T02:26:40.616Z,0
2016-07-15T02:27:40.616Z,0
2016-07-15T02:28:40.620Z,0
2016-07-15T02:29:40.615Z,0
2016-07-15T02:30:40.616Z,0
2016-07-15T02:31:40.615Z,0
2016-07-15T02:32:40.615Z,0
2016-07-15T02:33:40.611Z,0
2016-07-15T02:34:40.619Z,0
2016-07-15T02:35:40.623Z,0
2016-07-15T02:36:40.612Z,0
2016-07-15T02:37:40.612Z,0
2016-07-15T02:38:40.612Z,0
2016-07-15T02:39:40.612Z,0
2016-07-15T02:40:40.603Z,0
2016-07-15T02:41:40.656Z,0
2016-07-15T02:42:40.616Z,0
2016-07-15T02:43:40.608Z,0
2016-07-15T02:44:40.608Z,0
2016-07-15T02:45:40.608Z,0
2016-07-15T02:46:40.603Z,0
2016-07-15T02:47:39.888Z,0
2016-07-15T02:48:40.604Z,0
2016-07-15T02:49:40.603Z,0
2016-07-15T02:50:40.604Z,0
2016-07-15T02:51:40.604Z,0
2016-07-15T02:52:40.604Z,0
2016-07-15T02:53:39.880Z,0
2016-07-15T02:54:40.600Z,0
2016-07-15T02:55:40.599Z,0
2016-07-15T02:56:40.599Z,0
2016-07-15T02:57:40.596Z,0
2016-07-15T02:58:40.595Z,0
2016-07-15T02:59:40.600Z,0
2016-07-15T03:00:39.876Z,0
2016-07-15T03:01:40.596Z,0
2016-07-15T03:02:40.595Z,0
2016-07-15T03:03:40.600Z,0
2016-07-15T03:04:40.596Z,0
2016-07-15T03:05:40.604Z,0
2016-07-15T03:06:40.596Z,0
2016-07-15T03:07:40.597Z,0
2016-07-15T03:08:40.592Z,0
2016-07-15T03:09:40.612Z,0
2016-07-15T03:10:40.632Z,0
2016-07-15T03:11:40.600Z,0
2016-07-15T03:12:40.592Z,0
2016-07-15T03:13:40.585Z,0
2016-07-15T03:14:40.588Z,4
2016-07-15T03:15:40.594Z,4
2016-07-15T03:16:40.589Z,4
2016-07-15T03:17:40.593Z,0
2016-07-15T03:18:40.584Z,0
2016-07-15T03:19:40.585Z,4
2016-07-15T03:20:40.589Z,4
2016-07-15T03:21:40.588Z,4
2016-07-15T03:22:40.589Z,4
2016-07-15T03:23:40.584Z,4
2016-07-15T03:24:40.596Z,8
2016-07-15T03:25:39.861Z,8
2016-07-15T03:26:40.584Z,4
2016-07-15T03:27:39.861Z,8
2016-07-15T03:28:40.585Z,8
2016-07-15T03:29:40.588Z,8
2016-07-15T03:30:40.584Z,8
2016-07-15T03:31:40.581Z,12
2016-07-15T03:32:40.581Z,12
2016-07-15T03:33:40.581Z,16
2016-07-15T03:34:40.581Z,12
2016-07-15T03:35:40.582Z,16
2016-07-15T03:36:40.581Z,20
2016-07-15T03:37:40.582Z,20
2016-07-15T03:38:40.573Z,24
2016-07-15T03:39:40.584Z,24
2016-07-15T03:40:40.569Z,24
2016-07-15T03:41:40.578Z,28
2016-07-15T03:42:40.573Z,32
2016-07-15T03:43:40.577Z,32
2016-07-15T03:44:40.578Z,40
2016-07-15T03:45:39.853Z,40
2016-07-15T03:46:39.854Z,44
2016-07-15T03:47:39.855Z,44
2016-07-15T03:48:40.573Z,48
2016-07-15T03:49:40.578Z,44
2016-07-15T03:50:40.578Z,44
2016-07-15T03:51:40.573Z,48
2016-07-15T03:52:40.570Z,52
2016-07-15T03:53:40.570Z,52
2016-07-15T03:54:40.574Z,52
2016-07-15T03:55:40.570Z,56
2016-07-15T03:56:40.569Z,56
2016-07-15T03:57:40.574Z,60
2016-07-15T03:58:40.566Z,60
2016-07-15T03:59:40.566Z,60
2016-07-15T04:00:40.566Z,64
2016-07-15T04:01:40.573Z,64
2016-07-15T04:02:40.766Z,64
2016-07-15T04:03:40.569Z,64
2016-07-15T04:04:40.566Z,68
2016-07-15T04:05:40.566Z,72
2016-07-15T04:06:40.562Z,76
2016-07-15T04:07:40.562Z,84
2016-07-15T04:08:40.558Z,88
2016-07-15T04:09:40.564Z,100
2016-07-15T04:10:40.562Z,108
2016-07-15T04:11:40.562Z,116
2016-07-15T04:12:40.563Z,128
2016-07-15T04:13:40.558Z,136
2016-07-15T04:14:40.562Z,148
2016-07-15T04:15:40.558Z,152
2016-07-15T04:16:40.558Z,160
2016-07-15T04:17:40.558Z,168
2016-07-15T04:18:40.555Z,176
2016-07-15T04:19:40.558Z,184
2016-07-15T04:20:40.550Z,192
2016-07-15T04:21:40.558Z,204
2016-07-15T04:22:40.555Z,212
2016-07-15T04:23:40.554Z,224
2016-07-15T04:24:40.555Z,236
2016-07-15T04:25:40.554Z,252
2016-07-15T04:26:40.559Z,268
2016-07-15T04:27:40.554Z,284
2016-07-15T04:28:40.554Z,296
2016-07-15T04:29:40.550Z,308
2016-07-15T04:30:39.823Z,304
2016-07-15T04:31:40.558Z,300
2016-07-15T04:32:40.555Z,296
2016-07-15T04:33:40.550Z,288
2016-07-15T04:34:40.551Z,288
2016-07-15T04:35:40.550Z,284
2016-07-15T04:36:40.559Z,276
2016-07-15T04:37:40.547Z,276
2016-07-15T04:38:40.551Z,276
2016-07-15T04:39:40.552Z,276
2016-07-15T04:40:40.547Z,280
2016-07-15T04:41:40.547Z,288
2016-07-15T04:42:40.547Z,300
2016-07-15T04:43:40.547Z,312
2016-07-15T04:44:40.544Z,320
2016-07-15T04:45:40.563Z,332
2016-07-15T04:46:40.544Z,336
2016-07-15T04:47:40.543Z,344
2016-07-15T04:48:40.543Z,348
2016-07-15T04:49:40.552Z,360
2016-07-15T04:50:40.544Z,384
2016-07-15T04:51:40.556Z,416
2016-07-15T04:52:40.544Z,448
2016-07-15T04:53:40.540Z,484
2016-07-15T04:54:40.895Z,520
2016-07-15T04:55:40.540Z,544
2016-07-15T04:56:40.544Z,560
2016-07-15T04:57:40.544Z,564
2016-07-15T04:58:40.552Z,556
2016-07-15T04:59:40.540Z,540
2016-07-15T05:00:40.539Z,524
2016-07-15T05:01:40.540Z,508
2016-07-15T05:02:40.531Z,500
2016-07-15T05:03:40.545Z,496
2016-07-15T05:04:40.536Z,500
2016-07-15T05:05:40.527Z,508
2016-07-15T05:06:40.536Z,516
2016-07-15T05:07:40.537Z,528
2016-07-15T05:08:40.532Z,536
2016-07-15T05:09:40.536Z,540
2016-07-15T05:10:40.533Z,540
2016-07-15T05:11:40.532Z,548
2016-07-15T05:12:40.533Z,564
2016-07-15T05:13:40.533Z,584
2016-07-15T05:14:40.532Z,600
2016-07-15T05:15:40.532Z,612
2016-07-15T05:16:40.528Z,612
2016-07-15T05:17:40.536Z,616
2016-07-15T05:18:40.528Z,624
2016-07-15T05:19:40.547Z,632
2016-07-15T05:20:40.529Z,648
2016-07-15T05:21:40.529Z,664
2016-07-15T05:22:40.534Z,684
2016-07-15T05:23:40.533Z,708
2016-07-15T05:24:40.529Z,720
2016-07-15T05:25:40.529Z,724
2016-07-15T05:26:40.532Z,732
2016-07-15T05:27:40.529Z,740
2016-07-15T05:28:40.524Z,740
2016-07-15T05:29:40.526Z,736
2016-07-15T05:30:40.525Z,712
2016-07-15T05:31:40.533Z,676
2016-07-15T05:32:40.525Z,636
2016-07-15T05:33:40.522Z,592
2016-07-15T05:34:40.524Z,560
2016-07-15T05:35:40.525Z,540
2016-07-15T05:36:40.529Z,540
2016-07-15T05:37:40.526Z,544
2016-07-15T05:38:40.525Z,548
2016-07-15T05:39:39.797Z,556
2016-07-15T05:40:40.522Z,568
2016-07-15T05:41:40.521Z,568
2016-07-15T05:42:40.537Z,564
2016-07-15T05:43:40.521Z,564
2016-07-15T05:44:40.524Z,576
2016-07-15T05:45:40.521Z,596
2016-07-15T05:46:40.525Z,624
2016-07-15T05:47:40.525Z,652
2016-07-15T05:48:40.521Z,680
2016-07-15T05:49:40.527Z,704
2016-07-15T05:50:40.518Z,732
2016-07-15T05:51:40.519Z,764
2016-07-15T05:52:40.518Z,796
2016-07-15T05:53:40.526Z,832
2016-07-15T05:54:40.518Z,868
2016-07-15T05:55:40.518Z,900
2016-07-15T05:56:40.518Z,932
2016-07-15T05:57:40.517Z,960
2016-07-15T05:58:40.517Z,988
2016-07-15T05:59:40.518Z,1028
2016-07-15T06:00:40.526Z,1076
2016-07-15T06:01:40.514Z,1132
2016-07-15T06:02:40.514Z,1200
2016-07-15T06:03:40.514Z,1264
2016-07-15T06:04:40.514Z,1320
2016-07-15T06:05:40.514Z,1392
2016-07-15T06:06:40.513Z,1488
2016-07-15T06:07:39.804Z,1604
2016-07-15T06:08:40.514Z,1756
2016-07-15T06:09:40.515Z,1908
2016-07-15T06:10:40.514Z,2080
2016-07-15T06:11:40.513Z,2252
2016-07-15T06:12:40.510Z,2412
2016-07-15T06:13:40.509Z,2552
2016-07-15T06:14:40.510Z,2652
2016-07-15T06:15:40.517Z,2720
2016-07-15T06:16:40.509Z,2900
2016-07-15T06:17:40.510Z,3556
2016-07-15T06:18:40.502Z,3168
2016-07-15T06:19:40.520Z,3164
2016-07-15T06:20:40.510Z,3244
2016-07-15T06:21:40.506Z,3088
2016-07-15T06:22:40.511Z,2964
2016-07-15T06:23:40.510Z,2904
2016-07-15T06:24:40.506Z,2876
2016-07-15T06:25:40.512Z,2872
2016-07-15T06:26:40.510Z,2876
2016-07-15T06:27:40.511Z,2880
2016-07-15T06:28:40.511Z,2864
2016-07-15T06:29:40.506Z,2832
2016-07-15T06:30:40.515Z,2772
2016-07-15T06:31:40.514Z,2696
2016-07-15T06:32:40.511Z,2624
2016-07-15T06:33:40.511Z,2572
2016-07-15T06:34:40.510Z,2556
2016-07-15T06:35:40.511Z,2592
2016-07-15T06:36:40.507Z,2664
2016-07-15T06:37:40.502Z,2744
2016-07-15T06:38:40.522Z,2824
2016-07-15T06:39:40.511Z,2900
2016-07-15T06:40:40.506Z,2976
2016-07-15T06:41:40.511Z,3060
2016-07-15T06:42:40.510Z,3148
2016-07-15T06:43:40.511Z,3236
2016-07-15T06:44:40.511Z,3388
2016-07-15T06:45:40.510Z,3600
2016-07-15T06:46:40.510Z,3860
2016-07-15T06:47:40.515Z,4164
2016-07-15T06:48:40.507Z,4468
2016-07-15T06:49:40.514Z,4796
2016-07-15T06:50:40.515Z,5148
2016-07-15T06:51:40.515Z,5648
2016-07-15T06:52:40.514Z,6356
2016-07-15T06:53:40.518Z,7348
2016-07-15T06:54:40.515Z,9436
2016-07-15T06:55:40.515Z,11768
2016-07-15T06:56:40.515Z,27360
2016-07-15T06:57:40.510Z,22016
2016-07-15T06:58:40.519Z,13288
2016-07-15T06:59:40.519Z,13024
2016-07-15T07:00:40.532Z,12484
2016-07-15T07:01:40.519Z,13096
2016-07-15T07:02:39.794Z,14592
2016-07-15T07:03:40.523Z,15508
2016-07-15T07:04:40.520Z,24928
2016-07-15T07:05:40.519Z,12176
2016-07-15T07:06:40.523Z,11528
2016-07-15T07:07:40.524Z,12016
2016-07-15T07:08:40.531Z,17312
2016-07-15T07:09:40.528Z,17152
2016-07-15T07:10:40.523Z,12656
2016-07-15T07:11:40.527Z,13024
2016-07-15T07:12:40.532Z,9656
2016-07-15T07:13:40.536Z,7692
2016-07-15T07:14:40.548Z,7260
2016-07-15T07:15:41.228Z,6956
2016-07-15T07:16:40.556Z,6688
2016-07-15T07:17:40.544Z,6456
2016-07-15T07:18:40.544Z,6228
2016-07-15T07:19:40.540Z,6076
2016-07-15T07:20:40.549Z,6008
2016-07-15T07:21:40.556Z,6108
2016-07-15T07:22:40.552Z,6336
2016-07-15T07:23:40.561Z,6604
2016-07-15T07:24:40.560Z,6896
2016-07-15T07:25:40.556Z,7208
2016-07-15T07:26:40.561Z,7648
2016-07-15T07:27:40.556Z,7900
2016-07-15T07:28:40.562Z,8100
2016-07-15T07:29:40.565Z,8400
2016-07-15T07:30:40.568Z,8884
2016-07-15T07:31:40.573Z,9464
2016-07-15T07:32:40.573Z,10212
2016-07-15T07:33:40.572Z,11016
2016-07-15T07:34:40.585Z,12140
2016-07-15T07:35:40.576Z,12724
2016-07-15T07:36:40.580Z,13368
2016-07-15T07:37:40.581Z,23232
2016-07-15T07:38:40.580Z,21568
2016-07-15T07:39:40.585Z,14356
2016-07-15T07:40:40.589Z,12772
2016-07-15T07:41:40.594Z,12308
2016-07-15T07:42:40.593Z,12808
2016-07-15T07:43:40.597Z,13148
2016-07-15T07:44:40.597Z,13404
2016-07-15T07:45:40.602Z,13708
2016-07-15T07:46:40.605Z,21120
2016-07-15T07:47:40.617Z,17928
2016-07-15T07:48:40.610Z,17688
2016-07-15T07:49:40.613Z,20864
2016-07-15T07:50:40.613Z,20512
2016-07-15T07:51:40.617Z,18092
2016-07-15T07:52:39.901Z,18976
2016-07-15T07:53:40.625Z,36256
2016-07-15T07:54:40.625Z,22752
2016-07-15T07:55:40.634Z,16496
2016-07-15T07:56:40.637Z,15752
2016-07-15T07:57:40.646Z,15044
2016-07-15T07:58:40.641Z,14996
2016-07-15T07:59:40.653Z,15152
2016-07-15T08:00:40.648Z,16184
2016-07-15T08:01:40.650Z,43680
2016-07-15T08:02:40.653Z,44128
2016-07-15T08:03:40.659Z,37120
2016-07-15T08:04:40.662Z,29984
2016-07-15T08:05:39.945Z,24096
2016-07-15T08:06:40.673Z,22752
2016-07-15T08:07:40.674Z,17428
2016-07-15T08:08:40.678Z,16828
2016-07-15T08:09:40.682Z,19616
2016-07-15T08:10:40.786Z,19488
2016-07-15T08:11:40.690Z,20608
2016-07-15T08:12:40.697Z,43360
2016-07-15T08:13:40.693Z,40320
2016-07-15T08:14:40.702Z,39040
2016-07-15T08:15:40.710Z,40160
2016-07-15T08:16:40.718Z,38944
2016-07-15T08:17:39.998Z,34464
2016-07-15T08:18:40.718Z,31296
2016-07-15T08:19:40.726Z,8388
2016-07-15T08:20:40.730Z,6616
2016-07-15T08:21:40.018Z,5568
2016-07-15T08:22:40.023Z,5088
2016-07-15T08:23:40.738Z,4576
2016-07-15T08:24:40.751Z,4288
2016-07-15T08:25:40.759Z,4164
2016-07-15T08:26:40.762Z,4088
2016-07-15T08:27:40.767Z,4108
2016-07-15T08:28:40.770Z,4208
2016-07-15T08:29:40.775Z,4312
2016-07-15T08:30:40.778Z,4384
2016-07-15T08:31:40.787Z,4556
2016-07-15T08:32:40.791Z,4808
2016-07-15T08:33:40.794Z,5048
2016-07-15T08:34:40.799Z,5432
2016-07-15T08:35:40.807Z,5788
2016-07-15T08:36:40.803Z,5996
2016-07-15T08:37:40.815Z,6192
2016-07-15T08:38:40.823Z,6692
2016-07-15T08:39:40.819Z,7796
2016-07-15T08:40:40.823Z,11364
2016-07-15T08:41:40.819Z,7304
2016-07-15T08:42:40.831Z,6880
2016-07-15T08:43:40.827Z,7176
2016-07-15T08:44:40.835Z,7676
2016-07-15T08:45:40.840Z,8328
2016-07-15T08:46:40.843Z,12164
2016-07-15T08:47:40.848Z,9908
2016-07-15T08:48:40.851Z,10640
2016-07-15T08:49:40.856Z,24416
2016-07-15T08:50:40.856Z,34240
2016-07-15T08:51:40.859Z,21248
2016-07-15T08:52:40.867Z,34784
2016-07-15T08:53:40.871Z,23872
2016-07-15T08:54:40.876Z,15456
2016-07-15T08:55:40.879Z,14740
2016-07-15T08:56:40.884Z,14872
2016-07-15T08:57:40.888Z,15156
2016-07-15T08:58:40.887Z,15260
2016-07-15T08:59:40.896Z,15384
2016-07-15T09:00:40.900Z,15224
2016-07-15T09:01:40.910Z,14448
2016-07-15T09:02:40.916Z,14036
2016-07-15T09:03:40.912Z,13912
2016-07-15T09:04:40.921Z,13440
2016-07-15T09:05:40.924Z,12588
2016-07-15T09:06:40.928Z,10396
2016-07-15T09:07:40.932Z,7852
2016-07-15T09:08:40.939Z,7384
2016-07-15T09:09:40.944Z,6752
2016-07-15T09:10:40.948Z,6348
2016-07-15T09:11:40.956Z,5908
2016-07-15T09:12:40.960Z,5612
2016-07-15T09:13:40.960Z,5312
2016-07-15T09:14:40.968Z,4972
2016-07-15T09:15:40.980Z,4716
2016-07-15T09:16:40.980Z,4540
2016-07-15T09:17:40.981Z,4400
2016-07-15T09:18:40.988Z,4280
2016-07-15T09:19:40.996Z,4184
2016-07-15T09:20:41.008Z,4088
2016-07-15T09:21:41.004Z,4008
2016-07-15T09:22:41.008Z,3908
2016-07-15T09:23:40.293Z,3788
2016-07-15T09:24:41.016Z,3696
2016-07-15T09:25:41.020Z,3636
2016-07-15T09:26:41.025Z,3576
2016-07-15T09:27:41.037Z,3520
2016-07-15T09:28:41.032Z,3484
2016-07-15T09:29:41.036Z,3464
2016-07-15T09:30:41.041Z,3424
2016-07-15T09:31:41.045Z,3404
2016-07-15T09:32:41.049Z,3400
2016-07-15T09:33:41.053Z,3416
2016-07-15T09:34:41.056Z,3428
2016-07-15T09:35:41.061Z,3436
2016-07-15T09:36:41.064Z,3444
2016-07-15T09:37:41.069Z,3448
2016-07-15T09:38:41.072Z,3476
2016-07-15T09:39:41.081Z,3532
2016-07-15T09:40:41.077Z,3620
2016-07-15T09:41:41.084Z,3724
2016-07-15T09:42:41.089Z,3816
2016-07-15T09:43:41.081Z,3952
2016-07-15T09:44:41.101Z,4180
2016-07-15T09:45:41.096Z,4436
2016-07-15T09:46:41.101Z,4688
2016-07-15T09:47:41.108Z,4972
2016-07-15T09:48:41.117Z,5344
2016-07-15T09:49:41.117Z,5648
2016-07-15T09:50:41.121Z,5896
2016-07-15T09:51:41.117Z,6072
2016-07-15T09:52:41.116Z,6276
2016-07-15T09:53:41.137Z,6436
2016-07-15T09:54:41.128Z,6452
2016-07-15T09:55:41.132Z,6340
2016-07-15T09:56:41.137Z,6188
2016-07-15T09:57:41.137Z,6116
2016-07-15T09:58:41.141Z,6096
2016-07-15T09:59:41.145Z,6204
2016-07-15T10:00:40.429Z,6468
2016-07-15T10:01:41.152Z,6776
2016-07-15T10:02:41.153Z,6332
2016-07-15T10:03:41.157Z,6080
2016-07-15T10:04:41.161Z,6256
2016-07-15T10:05:41.165Z,6368
2016-07-15T10:06:41.165Z,6136
2016-07-15T10:07:41.175Z,5580
2016-07-15T10:08:41.174Z,5148
2016-07-15T10:09:41.178Z,4980
2016-07-15T10:10:41.181Z,4884
2016-07-15T10:11:41.181Z,4752
2016-07-15T10:12:41.187Z,4600
2016-07-15T10:13:41.190Z,4436
2016-07-15T10:14:41.194Z,4264
2016-07-15T10:15:41.198Z,4092
2016-07-15T10:16:41.199Z,3976
2016-07-15T10:17:41.202Z,3900
2016-07-15T10:18:41.706Z,3840
2016-07-15T10:19:41.211Z,3804
2016-07-15T10:20:41.211Z,3756
2016-07-15T10:21:41.215Z,3680
2016-07-15T10:22:41.219Z,3588
2016-07-15T10:23:41.231Z,3492
2016-07-15T10:24:41.222Z,3416
2016-07-15T10:25:41.227Z,3396
2016-07-15T10:26:40.515Z,3376
2016-07-15T10:27:41.234Z,3304
2016-07-15T10:28:41.238Z,3252
2016-07-15T10:29:41.234Z,3228
2016-07-15T10:30:41.243Z,3208
2016-07-15T10:31:41.248Z,3192
2016-07-15T10:32:41.247Z,3192
2016-07-15T10:33:41.251Z,3220
2016-07-15T10:34:41.259Z,3276
2016-07-15T10:35:41.251Z,3356
2016-07-15T10:36:41.260Z,3460
2016-07-15T10:37:41.260Z,3568
2016-07-15T10:38:41.259Z,3672
2016-07-15T10:39:41.268Z,3780
2016-07-15T10:40:41.272Z,3908
2016-07-15T10:41:40.907Z,4040
2016-07-15T10:42:41.280Z,4140
2016-07-15T10:43:41.276Z,4220
2016-07-15T10:44:41.284Z,4260
2016-07-15T10:45:41.284Z,4236
2016-07-15T10:46:41.288Z,4192
2016-07-15T10:47:41.292Z,4208
2016-07-15T10:48:41.292Z,4292
2016-07-15T10:49:41.296Z,4396
2016-07-15T10:50:41.300Z,4480
2016-07-15T10:51:41.312Z,4556
2016-07-15T10:52:41.316Z,4664
2016-07-15T10:53:41.307Z,4804
2016-07-15T10:54:41.308Z,4920
2016-07-15T10:55:41.312Z,5032
2016-07-15T10:56:40.597Z,5164
2016-07-15T10:57:41.316Z,5300
2016-07-15T10:58:41.321Z,5432
2016-07-15T10:59:41.328Z,5496
2016-07-15T11:00:41.324Z,5588
2016-07-15T11:01:40.608Z,5732
2016-07-15T11:02:41.332Z,5888
2016-07-15T11:03:41.333Z,6072
2016-07-15T11:04:41.337Z,6292
2016-07-15T11:05:41.341Z,6484
2016-07-15T11:06:41.340Z,6600
2016-07-15T11:07:41.350Z,6696
2016-07-15T11:08:40.630Z,6748
2016-07-15T11:09:41.349Z,6804
2016-07-15T11:10:41.701Z,7000
2016-07-15T11:11:41.356Z,7240
2016-07-15T11:12:41.357Z,7408
2016-07-15T11:13:41.361Z,7584
2016-07-15T11:14:41.370Z,7860
2016-07-15T11:15:41.369Z,8124
2016-07-15T11:16:41.369Z,8400
2016-07-15T11:17:41.372Z,8712
2016-07-15T11:18:41.376Z,8960
2016-07-15T11:19:41.376Z,9128
2016-07-15T11:20:41.380Z,9124
2016-07-15T11:21:41.384Z,9072
2016-07-15T11:22:41.392Z,8924
2016-07-15T11:23:41.388Z,8724
2016-07-15T11:24:41.392Z,8760
2016-07-15T11:25:41.393Z,9040
2016-07-15T11:26:41.495Z,9036
2016-07-15T11:27:41.399Z,8852
2016-07-15T11:28:41.401Z,8900
2016-07-15T11:29:41.441Z,9128
2016-07-15T11:30:41.409Z,9268
2016-07-15T11:31:41.412Z,8756
2016-07-15T11:32:41.412Z,8724
2016-07-15T11:33:41.424Z,8736
2016-07-15T11:34:41.420Z,8500
2016-07-15T11:35:41.432Z,8576
2016-07-15T11:36:41.425Z,8920
2016-07-15T11:37:41.428Z,8676
2016-07-15T11:38:40.729Z,9072
2016-07-15T11:39:41.436Z,9064
2016-07-15T11:40:41.436Z,8576
2016-07-15T11:41:41.540Z,8496
2016-07-15T11:42:41.445Z,8192
2016-07-15T11:43:41.448Z,7928
2016-07-15T11:44:41.448Z,8100
2016-07-15T11:45:41.513Z,7868
2016-07-15T11:46:41.448Z,7356
2016-07-15T11:47:41.469Z,6676
2016-07-15T11:48:40.740Z,6224
2016-07-15T11:49:41.465Z,6032
2016-07-15T11:50:41.468Z,5696
2016-07-15T11:51:41.477Z,5256
2016-07-15T11:52:40.756Z,4816
2016-07-15T11:53:41.477Z,4256
2016-07-15T11:54:41.481Z,3796
2016-07-15T11:55:41.485Z,3412
2016-07-15T11:56:41.489Z,3032
2016-07-15T11:57:41.489Z,2652
2016-07-15T11:58:41.493Z,2276
2016-07-15T11:59:41.504Z,1992
2016-07-15T12:00:41.502Z,1760
2016-07-15T12:01:41.501Z,1600
2016-07-15T12:02:41.752Z,1484
2016-07-15T12:03:41.509Z,1432
2016-07-15T12:04:41.505Z,1436
2016-07-15T12:05:41.513Z,1460
2016-07-15T12:06:41.675Z,1484
2016-07-15T12:07:41.521Z,1540
2016-07-15T12:08:41.521Z,1608
2016-07-15T12:09:41.524Z,1680
2016-07-15T12:10:41.529Z,1780
2016-07-15T12:11:41.530Z,1908
2016-07-15T12:12:41.537Z,2064
2016-07-15T12:13:41.534Z,2216
2016-07-15T12:14:41.542Z,2364
2016-07-15T12:15:41.541Z,2496
2016-07-15T12:16:41.545Z,2640
2016-07-15T12:17:41.558Z,2764
2016-07-15T12:18:41.550Z,2860
2016-07-15T12:19:41.550Z,2924
2016-07-15T12:20:41.558Z,2952
2016-07-15T12:21:41.553Z,2980
2016-07-15T12:22:41.557Z,3012
2016-07-15T12:23:40.838Z,3064
2016-07-15T12:24:41.562Z,3120
2016-07-15T12:25:41.565Z,3164
2016-07-15T12:26:41.566Z,3196
2016-07-15T12:27:41.569Z,3220
2016-07-15T12:28:41.573Z,3228
2016-07-15T12:29:41.574Z,3228
2016-07-15T12:30:41.581Z,3228
2016-07-15T12:31:41.590Z,3236
2016-07-15T12:32:41.581Z,3272
2016-07-15T12:33:41.582Z,3332
2016-07-15T12:34:41.585Z,3428
2016-07-15T12:35:41.598Z,3532
2016-07-15T12:36:41.591Z,3652
2016-07-15T12:37:41.594Z,3792
2016-07-15T12:38:41.602Z,3980
2016-07-15T12:39:41.599Z,4208
2016-07-15T12:40:41.594Z,4476
2016-07-15T12:41:41.602Z,4796
2016-07-15T12:42:41.606Z,5192
2016-07-15T12:43:41.602Z,5564
2016-07-15T12:44:41.611Z,5832
2016-07-15T12:45:40.895Z,6000
2016-07-15T12:46:41.618Z,6044
2016-07-15T12:47:41.698Z,6104
2016-07-15T12:48:41.610Z,6192
2016-07-15T12:49:41.623Z,6260
2016-07-15T12:50:41.623Z,6284
2016-07-15T12:51:41.663Z,6276
2016-07-15T12:52:41.642Z,6172
2016-07-15T12:53:41.630Z,6012
2016-07-15T12:54:41.931Z,5668
2016-07-15T12:55:41.630Z,5264
2016-07-15T12:56:41.639Z,4988
2016-07-15T12:57:41.638Z,4904
2016-07-15T12:58:41.643Z,4948
2016-07-15T12:59:41.642Z,5064
2016-07-15T13:00:41.647Z,5132
2016-07-15T13:01:41.651Z,5192
2016-07-15T13:02:41.650Z,5240
2016-07-15T13:03:41.655Z,5336
2016-07-15T13:04:41.655Z,5632
2016-07-15T13:05:41.659Z,5832
2016-07-15T13:06:41.663Z,5856
2016-07-15T13:07:41.672Z,5768
2016-07-15T13:08:41.663Z,5840
2016-07-15T13:09:41.673Z,5880
2016-07-15T13:10:41.671Z,5876
2016-07-15T13:11:41.675Z,5692
2016-07-15T13:12:40.955Z,5616
2016-07-15T13:13:41.683Z,5656
2016-07-15T13:14:41.680Z,5720
2016-07-15T13:15:41.684Z,5912
2016-07-15T13:16:41.692Z,4980
2016-07-15T13:17:41.683Z,4160
2016-07-15T13:18:41.692Z,3260
2016-07-15T13:19:41.696Z,2604
2016-07-15T13:20:41.696Z,2180
2016-07-15T13:21:41.701Z,1856
2016-07-15T13:22:41.711Z,1604
2016-07-15T13:23:41.704Z,1396
2016-07-15T13:24:41.708Z,1252
2016-07-15T13:25:41.707Z,1184
2016-07-15T13:26:41.712Z,1160
2016-07-15T13:27:40.991Z,1156
2016-07-15T13:28:40.996Z,1156
2016-07-15T13:29:41.719Z,1164
2016-07-15T13:30:41.720Z,1164
2016-07-15T13:31:41.724Z,1160
2016-07-15T13:32:41.724Z,1152
2016-07-15T13:33:41.744Z,1148
2016-07-15T13:34:41.752Z,1160
2016-07-15T13:35:41.732Z,1188
2016-07-15T13:36:41.736Z,1236
2016-07-15T13:37:41.957Z,1296
2016-07-15T13:38:41.740Z,1356
2016-07-15T13:39:41.740Z,1428
2016-07-15T13:40:41.748Z,1508
2016-07-15T13:41:41.896Z,1592
2016-07-15T13:42:41.752Z,1684
2016-07-15T13:43:41.748Z,1784